createdAt,value
2019-02-19T00:01:25.749Z,1.93
2019-02-19T00:03:54.057Z,1.78
2019-02-19T00:06:22.800Z,1.84
2019-02-19T00:08:51.111Z,1.89
2019-02-19T00:11:19.409Z,1.77
2019-02-19T00:13:47.729Z,1.88
2019-02-19T00:16:16.108Z,1.89
2019-02-19T00:18:44.707Z,1.85
2019-02-19T00:21:13.081Z,1.87
2019-02-19T00:23:41.386Z,1.74
2019-02-19T00:26:17.220Z,1.62
2019-02-19T00:28:45.525Z,1.71
2019-02-19T00:31:13.909Z,1.73
2019-02-19T00:33:42.212Z,1.79
2019-02-19T00:36:10.620Z,1.74
2019-02-19T00:38:38.924Z,1.52
2019-02-19T00:41:07.596Z,1.54
2019-02-19T00:43:36.299Z,1.46
2019-02-19T00:46:05.104Z,1.50
2019-02-19T00:48:33.514Z,1.41
2019-02-19T00:51:01.820Z,1.32
2019-02-19T00:53:30.129Z,1.01
2019-02-19T00:55:58.449Z,1.18
2019-02-19T00:58:26.747Z,1.21
2019-02-19T01:00:55.077Z,1.16
2019-02-19T01:03:23.545Z,1.34
2019-02-19T01:05:51.866Z,1.28
2019-02-19T01:08:20.233Z,1.30
2019-02-19T01:10:48.534Z,1.21
2019-02-19T01:13:16.857Z,1.30
2019-02-19T01:15:45.177Z,1.27
2019-02-19T01:18:13.495Z,1.32
2019-02-19T01:20:41.799Z,1.36
2019-02-19T01:23:10.132Z,1.28
2019-02-19T01:25:38.438Z,1.24
2019-02-19T01:28:06.740Z,1.15
2019-02-19T01:30:35.463Z,1.20
2019-02-19T01:33:03.767Z,1.21
2019-02-19T01:35:32.101Z,1.11
2019-02-19T01:38:00.407Z,1.10
2019-02-19T01:40:28.708Z,1.14
2019-02-19T01:42:57.098Z,1.12
2019-02-19T01:45:33.713Z,1.21
2019-02-19T01:47:55.464Z,1.14
2019-02-19T01:50:24.156Z,1.11
2019-02-19T01:52:52.461Z,1.06
2019-02-19T01:55:21.117Z,1.15
2019-02-19T01:57:49.412Z,1.05
2019-02-19T02:00:18.187Z,0.89
2019-02-19T02:02:46.495Z,0.85
2019-02-19T02:05:14.792Z,0.87
2019-02-19T02:07:43.427Z,0.86
2019-02-19T02:10:11.730Z,0.88
2019-02-19T02:12:40.037Z,0.84
2019-02-19T02:15:08.534Z,0.75
2019-02-19T02:17:37.165Z,0.81
2019-02-19T02:20:07.433Z,0.90
2019-02-19T02:22:35.810Z,0.90
2019-02-19T02:25:04.187Z,0.80
2019-02-19T02:27:32.582Z,0.94
2019-02-19T02:30:00.899Z,0.96
2019-02-19T02:32:29.206Z,0.90
2019-02-19T02:34:57.507Z,0.92
2019-02-19T02:37:25.835Z,0.75
2019-02-19T02:39:54.139Z,0.65
2019-02-19T02:42:22.440Z,0.71
2019-02-19T02:44:50.763Z,0.73
2019-02-19T02:47:19.061Z,0.70
2019-02-19T02:49:47.367Z,0.66
2019-02-19T02:52:15.701Z,0.48
2019-02-19T02:54:44.010Z,0.61
2019-02-19T02:57:12.309Z,0.68
2019-02-19T02:59:40.654Z,0.70
2019-02-19T03:02:09.096Z,0.72
2019-02-19T03:04:37.399Z,0.61
2019-02-19T03:07:07.351Z,0.49
2019-02-19T03:09:35.653Z,0.60
2019-02-19T03:12:04.043Z,0.59
2019-02-19T03:14:32.349Z,0.54
2019-02-19T03:17:00.685Z,0.57
2019-02-19T03:19:28.996Z,0.50
2019-02-19T03:21:59.335Z,0.47
2019-02-19T03:24:27.353Z,0.50
2019-02-19T03:26:55.658Z,0.50
2019-02-19T03:29:23.998Z,0.36
2019-02-19T03:31:52.284Z,0.38
2019-02-19T03:34:20.593Z,0.35
2019-02-19T03:36:48.918Z,0.44
2019-02-19T03:39:17.223Z,0.39
2019-02-19T03:41:46.134Z,0.44
2019-02-19T03:44:14.501Z,0.40
2019-02-19T03:46:43.105Z,0.35
2019-02-19T03:49:11.429Z,0.27
2019-02-19T03:51:39.740Z,0.42
2019-02-19T03:54:08.069Z,0.16
2019-02-19T03:56:36.848Z,0.36
2019-02-19T03:59:05.496Z,0.42
2019-02-19T04:01:33.845Z,0.31
2019-02-19T04:04:02.186Z,0.25
2019-02-19T04:06:32.413Z,0.30
2019-02-19T04:09:00.869Z,0.37
2019-02-19T04:11:29.179Z,0.38
2019-02-19T04:13:57.490Z,0.30
2019-02-19T04:16:25.799Z,0.29
2019-02-19T04:18:54.210Z,0.43
2019-02-19T04:21:22.800Z,0.52
2019-02-19T04:23:51.106Z,0.46
2019-02-19T04:26:19.426Z,0.40
2019-02-19T04:28:47.731Z,0.56
2019-02-19T04:31:16.055Z,0.54
2019-02-19T04:33:44.369Z,0.50
2019-02-19T04:36:12.704Z,3.22
2019-02-19T04:38:41.003Z,8.73
2019-02-19T04:41:09.314Z,6.36
2019-02-19T04:43:37.641Z,4.09
2019-02-19T04:46:05.939Z,6.09
2019-02-19T04:48:34.276Z,2.60
2019-02-19T04:51:02.582Z,1.53
2019-02-19T04:53:30.872Z,1.51
2019-02-19T04:55:59.529Z,1.35
2019-02-19T04:58:27.829Z,1.01
2019-02-19T05:00:56.149Z,0.93
2019-02-19T05:03:24.456Z,0.79
2019-02-19T05:05:52.762Z,0.66
2019-02-19T05:08:21.086Z,0.49
2019-02-19T05:10:49.464Z,0.26
2019-02-19T05:13:17.787Z,0.52
2019-02-19T05:15:46.087Z,0.49
2019-02-19T05:18:14.400Z,0.33
2019-02-19T05:20:42.782Z,-0.15
2019-02-19T05:23:11.373Z,-0.25
2019-02-19T05:25:39.698Z,-0.12
2019-02-19T05:28:08.014Z,-0.06
2019-02-19T05:30:36.358Z,-0.02
2019-02-19T05:33:04.740Z,-0.02
2019-02-19T05:35:33.333Z,0.00
2019-02-19T05:38:01.923Z,0.05
2019-02-19T05:40:30.229Z,-0.11
2019-02-19T05:42:58.550Z,-0.03
2019-02-19T05:45:27.177Z,-0.03
2019-02-19T05:47:55.787Z,0.05
2019-02-19T05:50:24.098Z,-0.04
2019-02-19T05:52:52.395Z,0.05
2019-02-19T05:55:20.720Z,0.00
2019-02-19T05:57:49.026Z,0.04
2019-02-19T06:00:17.437Z,-0.04
2019-02-19T06:02:45.752Z,-0.10
2019-02-19T06:05:14.424Z,0.02
2019-02-19T06:07:43.117Z,-0.07
2019-02-19T06:10:12.812Z,-0.36
2019-02-19T06:12:41.219Z,-0.29
2019-02-19T06:15:11.673Z,-0.11
2019-02-19T06:17:39.963Z,-0.14
2019-02-19T06:20:09.032Z,0.02
2019-02-19T06:22:37.722Z,-0.01
2019-02-19T06:25:08.349Z,-0.12
2019-02-19T06:27:36.812Z,0.09
2019-02-19T06:30:11.145Z,0.08
2019-02-19T06:32:39.466Z,0.31
2019-02-19T06:35:08.825Z,0.26
2019-02-19T06:37:37.153Z,0.37
2019-02-19T06:40:08.566Z,0.42
2019-02-19T06:42:36.863Z,0.42
2019-02-19T06:45:05.856Z,0.54
2019-02-19T06:47:34.160Z,0.63
2019-02-19T06:50:02.533Z,0.61
2019-02-19T06:52:30.842Z,0.54
2019-02-19T06:54:59.177Z,0.48
2019-02-19T06:57:27.846Z,0.56
2019-02-19T06:59:56.155Z,0.66
2019-02-19T07:02:26.119Z,0.71
2019-02-19T07:04:55.302Z,0.71
2019-02-19T07:07:23.624Z,0.91
2019-02-19T07:09:52.000Z,0.97
2019-02-19T07:12:20.392Z,1.00
2019-02-19T07:14:48.709Z,1.03
2019-02-19T07:17:17.056Z,1.13
2019-02-19T07:19:45.369Z,1.20
2019-02-19T07:22:13.753Z,1.36
2019-02-19T07:24:42.085Z,1.56
2019-02-19T07:27:10.467Z,1.59
2019-02-19T07:29:38.788Z,1.73
2019-02-19T07:32:07.093Z,1.65
2019-02-19T07:34:35.415Z,1.80
2019-02-19T07:37:03.744Z,1.83
2019-02-19T07:39:32.040Z,2.04
2019-02-19T07:42:00.373Z,1.98
2019-02-19T07:44:28.689Z,1.95
2019-02-19T07:46:57.001Z,2.13
2019-02-19T07:49:25.329Z,2.06
2019-02-19T07:51:53.638Z,2.29
2019-02-19T07:54:21.982Z,2.45
2019-02-19T07:56:50.646Z,2.65
2019-02-19T07:59:18.959Z,2.49
2019-02-19T08:01:47.331Z,2.56
2019-02-19T08:04:15.681Z,2.68
2019-02-19T08:06:44.029Z,2.62
2019-02-19T08:09:12.718Z,2.62
2019-02-19T08:11:41.089Z,2.72
2019-02-19T08:14:09.418Z,2.76
2019-02-19T08:16:37.721Z,2.86
2019-02-19T08:19:06.133Z,2.85
2019-02-19T08:21:34.424Z,2.97
2019-02-19T08:24:02.738Z,3.16
2019-02-19T08:26:31.538Z,3.17
2019-02-19T08:29:07.099Z,3.21
2019-02-19T08:31:29.903Z,3.45
2019-02-19T08:33:58.207Z,3.55
2019-02-19T08:36:26.515Z,3.31
2019-02-19T08:38:54.834Z,3.42
2019-02-19T08:41:23.144Z,3.65
2019-02-19T08:43:51.484Z,3.49
2019-02-19T08:46:19.789Z,3.70
2019-02-19T08:48:48.090Z,3.71
2019-02-19T08:51:16.423Z,3.75
2019-02-19T08:53:44.730Z,3.95
2019-02-19T08:56:13.074Z,4.00
2019-02-19T08:58:41.376Z,4.29
2019-02-19T09:01:10.005Z,3.99
2019-02-19T09:03:38.307Z,3.97
2019-02-19T09:06:06.612Z,3.27
2019-02-19T09:08:34.935Z,2.90
2019-02-19T09:11:03.529Z,4.16
2019-02-19T09:13:31.849Z,4.11
2019-02-19T09:16:00.418Z,4.42
2019-02-19T09:18:28.746Z,4.37
2019-02-19T09:20:57.372Z,3.64
2019-02-19T09:23:26.608Z,3.73
2019-02-19T09:25:54.950Z,3.71
2019-02-19T09:28:24.081Z,4.74
2019-02-19T09:30:52.737Z,4.84
2019-02-19T09:33:21.120Z,4.33
2019-02-19T09:35:49.428Z,4.61
2019-02-19T09:38:18.084Z,4.44
2019-02-19T09:40:46.391Z,4.96
2019-02-19T09:43:14.790Z,5.14
2019-02-19T09:45:43.086Z,4.95
2019-02-19T09:48:11.713Z,6.23
2019-02-19T09:50:40.038Z,6.27
2019-02-19T09:53:08.349Z,5.36
2019-02-19T09:55:36.682Z,5.25
2019-02-19T09:58:05.151Z,5.66
2019-02-19T10:00:34.137Z,5.61
2019-02-19T10:03:02.447Z,7.05
2019-02-19T10:05:31.664Z,6.91
2019-02-19T10:07:59.986Z,7.06
2019-02-19T10:10:28.291Z,6.24
2019-02-19T10:12:56.629Z,6.29
2019-02-19T10:15:24.934Z,6.55
2019-02-19T10:17:53.241Z,6.37
2019-02-19T10:20:21.569Z,6.52
2019-02-19T10:22:50.897Z,7.49
2019-02-19T10:25:19.589Z,7.86
2019-02-19T10:27:47.891Z,7.98
2019-02-19T10:30:18.347Z,8.39
2019-02-19T10:32:46.703Z,8.59
2019-02-19T10:35:15.048Z,8.68
2019-02-19T10:37:43.376Z,8.78
2019-02-19T10:40:18.938Z,8.85
2019-02-19T10:42:47.241Z,8.75
2019-02-19T10:45:26.803Z,8.87
2019-02-19T10:47:55.111Z,9.35
2019-02-19T10:50:23.446Z,9.35
2019-02-19T10:52:52.176Z,9.62
2019-02-19T10:55:20.537Z,9.47
2019-02-19T10:57:48.856Z,9.86
2019-02-19T11:00:20.066Z,9.76
2019-02-19T11:02:48.542Z,10.09
2019-02-19T11:05:17.355Z,10.11
2019-02-19T11:07:45.666Z,10.29
2019-02-19T11:10:14.659Z,10.65
2019-02-19T11:12:43.417Z,10.80
2019-02-19T11:15:13.178Z,10.62
2019-02-19T11:17:41.575Z,10.72
2019-02-19T11:20:12.320Z,11.26
2019-02-19T11:22:40.689Z,11.28
2019-02-19T11:25:11.531Z,11.46
2019-02-19T11:27:39.923Z,11.24
2019-02-19T11:30:20.440Z,11.35
2019-02-19T11:32:49.156Z,11.90
2019-02-19T11:35:17.464Z,12.15
2019-02-19T11:37:45.969Z,12.00
2019-02-19T11:40:14.861Z,12.18
2019-02-19T11:42:43.181Z,12.65
2019-02-19T11:45:15.842Z,12.98
2019-02-19T11:47:44.156Z,13.55
2019-02-19T11:50:13.776Z,14.04
2019-02-19T11:52:42.163Z,13.77
2019-02-19T11:55:15.806Z,14.77
2019-02-19T11:57:44.729Z,13.75
2019-02-19T12:00:34.207Z,14.26
2019-02-19T12:03:02.550Z,14.56
2019-02-19T12:05:30.856Z,14.66
2019-02-19T12:07:59.169Z,15.24
2019-02-19T12:10:27.493Z,14.00
2019-02-19T12:12:55.792Z,14.87
2019-02-19T12:15:24.119Z,16.15
2019-02-19T12:17:52.424Z,15.76
2019-02-19T12:20:20.829Z,15.70
2019-02-19T12:22:49.530Z,15.82
2019-02-19T12:25:18.214Z,14.25
2019-02-19T12:27:46.541Z,16.45
2019-02-19T12:30:19.569Z,17.16
2019-02-19T12:32:49.286Z,17.56
2019-02-19T12:35:17.756Z,17.81
2019-02-19T12:37:46.083Z,18.25
2019-02-19T12:40:14.760Z,17.42
2019-02-19T12:42:43.116Z,15.58
2019-02-19T12:45:12.684Z,14.86
2019-02-19T12:47:41.316Z,18.00
2019-02-19T12:50:12.174Z,18.46
2019-02-19T12:52:40.480Z,17.75
2019-02-19T12:55:10.157Z,14.56
2019-02-19T12:57:38.547Z,14.73
2019-02-19T13:00:10.597Z,18.91
2019-02-19T13:02:39.390Z,17.64
2019-02-19T13:05:09.839Z,16.39
2019-02-19T13:07:38.177Z,18.36
2019-02-19T13:10:09.336Z,16.63
2019-02-19T13:12:37.644Z,16.01
2019-02-19T13:15:12.070Z,15.36
2019-02-19T13:17:40.440Z,14.83
2019-02-19T13:20:11.953Z,16.11
2019-02-19T13:22:40.343Z,18.01
2019-02-19T13:25:10.689Z,18.03
2019-02-19T13:27:39.076Z,19.25
2019-02-19T13:30:12.963Z,18.77
2019-02-19T13:32:41.367Z,18.42
2019-02-19T13:35:11.920Z,18.78
2019-02-19T13:37:40.227Z,19.27
2019-02-19T13:40:11.380Z,19.31
2019-02-19T13:42:39.757Z,19.03
2019-02-19T13:45:11.014Z,18.65
2019-02-19T13:47:39.528Z,18.87
2019-02-19T13:50:11.115Z,19.44
2019-02-19T13:52:41.057Z,19.39
2019-02-19T13:55:11.079Z,20.03
2019-02-19T13:57:39.533Z,19.71
2019-02-19T14:00:11.223Z,20.10
2019-02-19T14:02:39.553Z,19.77
2019-02-19T14:05:08.973Z,20.81
2019-02-19T14:07:37.361Z,20.74
2019-02-19T14:10:10.785Z,17.98
2019-02-19T14:12:39.087Z,17.84
2019-02-19T14:15:11.891Z,18.40
2019-02-19T14:17:40.206Z,17.20
2019-02-19T14:20:10.337Z,18.21
2019-02-19T14:22:49.657Z,18.77
2019-02-19T14:25:19.628Z,19.25
2019-02-19T14:27:49.580Z,17.01
2019-02-19T14:30:26.069Z,17.89
2019-02-19T14:33:07.679Z,17.96
2019-02-19T14:35:43.201Z,17.13
2019-02-19T14:38:16.096Z,17.22
2019-02-19T14:40:58.105Z,17.67
2019-02-19T14:43:43.825Z,16.98
2019-02-19T14:46:22.561Z,17.23
2019-02-19T14:48:52.497Z,17.85
2019-02-19T14:51:34.499Z,17.01
2019-02-19T14:54:13.354Z,17.95
2019-02-19T14:56:52.140Z,17.52
2019-02-19T14:59:31.090Z,17.47
2019-02-19T15:02:17.017Z,17.13
2019-02-19T15:04:58.898Z,16.93
2019-02-19T15:07:31.592Z,17.36
2019-02-19T15:10:16.198Z,16.51
2019-02-19T15:13:04.143Z,17.38
2019-02-19T15:15:46.369Z,17.29
2019-02-19T15:18:34.088Z,16.02
2019-02-19T15:21:20.129Z,16.25
2019-02-19T15:23:53.063Z,15.74
2019-02-19T15:29:29.994Z,15.41
2019-02-19T15:31:59.934Z,15.89
2019-02-19T15:34:36.004Z,15.62
2019-02-19T15:37:08.403Z,15.22
2019-02-19T15:39:38.354Z,15.19
2019-02-19T15:42:24.804Z,15.11
2019-02-19T15:44:54.769Z,15.11
2019-02-19T15:47:30.332Z,15.45
2019-02-19T15:50:06.084Z,15.28
2019-02-19T15:52:36.100Z,14.94
2019-02-19T15:55:12.873Z,14.43
2019-02-19T15:57:45.488Z,13.83
2019-02-19T16:00:21.236Z,14.27
2019-02-19T16:02:51.494Z,13.70
2019-02-19T16:05:37.897Z,13.79
2019-02-19T16:08:13.856Z,13.54
2019-02-19T16:10:52.827Z,13.48
2019-02-19T16:13:23.110Z,13.25
2019-02-19T16:16:07.887Z,12.95
2019-02-19T16:18:40.867Z,12.87
2019-02-19T16:21:10.855Z,12.85
2019-02-19T16:23:46.890Z,12.54
2019-02-19T16:26:18.745Z,12.38
2019-02-19T16:28:52.008Z,12.49
2019-02-19T16:31:30.882Z,12.31
2019-02-19T16:34:00.849Z,12.30
2019-02-19T16:36:33.612Z,12.13
2019-02-19T16:39:09.327Z,12.13
2019-02-19T16:41:45.341Z,12.05
2019-02-19T16:44:31.552Z,11.94
2019-02-19T16:47:07.516Z,11.99
2019-02-19T16:50:07.725Z,11.96
2019-02-19T16:52:39.801Z,12.02
2019-02-19T16:55:13.079Z,11.53
2019-02-19T16:57:45.584Z,11.54
2019-02-19T17:00:21.721Z,11.63
2019-02-19T17:02:57.383Z,11.41
2019-02-19T17:05:30.381Z,11.41
2019-02-19T17:08:12.397Z,11.34
2019-02-19T17:10:57.378Z,11.36
2019-02-19T17:13:39.380Z,10.99
2019-02-19T17:16:25.803Z,10.84
2019-02-19T17:18:58.495Z,10.90
2019-02-19T17:21:28.449Z,10.99
2019-02-19T17:24:04.391Z,11.11
2019-02-19T17:26:43.222Z,10.76
2019-02-19T17:29:16.126Z,10.72
2019-02-19T17:31:46.082Z,10.17
2019-02-19T17:34:18.848Z,10.16
2019-02-19T17:36:48.863Z,10.21
2019-02-19T17:39:18.820Z,10.03
2019-02-19T17:41:51.838Z,10.20
2019-02-19T17:44:38.108Z,10.26
2019-02-19T17:47:23.353Z,9.78
2019-02-19T17:49:53.423Z,9.48
2019-02-19T17:52:39.612Z,9.35
2019-02-19T17:55:26.212Z,9.28
2019-02-19T17:58:02.066Z,9.37
2019-02-19T18:00:35.279Z,9.32
2019-02-19T18:03:20.529Z,9.06
2019-02-19T18:06:07.123Z,9.24
2019-02-19T18:08:39.690Z,9.34
2019-02-19T18:11:26.111Z,9.35
2019-02-19T18:14:11.934Z,9.16
2019-02-19T18:16:41.958Z,9.19
2019-02-19T18:19:10.336Z,8.97
2019-02-19T18:21:38.638Z,9.03
2019-02-19T18:24:06.962Z,8.98
2019-02-19T18:26:35.296Z,9.04
2019-02-19T18:29:03.637Z,8.81
2019-02-19T18:31:31.933Z,8.81
2019-02-19T18:34:00.259Z,7.75
2019-02-19T18:36:28.560Z,8.63
2019-02-19T18:38:56.919Z,8.86
2019-02-19T18:41:25.546Z,8.76
2019-02-19T18:43:53.891Z,8.67
2019-02-19T18:46:22.244Z,8.54
2019-02-19T18:48:50.557Z,8.35
2019-02-19T18:51:18.959Z,8.34
2019-02-19T18:53:47.431Z,8.20
2019-02-19T18:56:15.929Z,8.14
2019-02-19T18:58:44.239Z,7.13
2019-02-19T19:01:12.703Z,7.55
2019-02-19T19:03:40.973Z,7.07
2019-02-19T19:06:09.289Z,7.81
2019-02-19T19:08:37.615Z,7.81
2019-02-19T19:11:05.944Z,7.85
2019-02-19T19:13:34.602Z,7.79
2019-02-19T19:16:02.904Z,7.85
2019-02-19T19:18:31.225Z,7.68
2019-02-19T19:21:07.644Z,7.13
2019-02-19T19:23:29.605Z,7.33
2019-02-19T19:25:57.929Z,7.45
2019-02-19T19:28:26.624Z,6.41
2019-02-19T19:30:55.031Z,7.32
2019-02-19T19:33:23.345Z,7.60
2019-02-19T19:35:51.650Z,7.78
2019-02-19T19:38:20.053Z,8.06
2019-02-19T19:40:48.379Z,8.39
2019-02-19T19:43:16.779Z,8.30
2019-02-19T19:45:45.086Z,8.31
2019-02-19T19:48:13.427Z,8.25
2019-02-19T19:50:41.809Z,8.47
2019-02-19T19:53:10.122Z,7.98
2019-02-19T19:55:38.462Z,7.86
2019-02-19T19:58:06.758Z,7.57
2019-02-19T20:00:35.093Z,7.70
2019-02-19T20:03:03.537Z,7.89
2019-02-19T20:05:31.869Z,7.77
2019-02-19T20:08:00.209Z,7.42
2019-02-19T20:10:28.557Z,7.42
2019-02-19T20:12:56.869Z,7.49
2019-02-19T20:15:25.243Z,7.56
2019-02-19T20:17:53.567Z,7.49
2019-02-19T20:20:21.879Z,7.57
2019-02-19T20:22:50.214Z,7.67
2019-02-19T20:25:18.525Z,7.62
2019-02-19T20:27:46.846Z,7.81
2019-02-19T20:30:16.394Z,7.74
2019-02-19T20:32:44.703Z,7.78
2019-02-19T20:35:13.319Z,7.78
2019-02-19T20:37:41.646Z,7.81
2019-02-19T20:40:12.873Z,7.64
2019-02-19T20:42:41.191Z,7.74
2019-02-19T20:45:13.709Z,7.70
2019-02-19T20:47:42.094Z,7.79
2019-02-19T20:50:11.741Z,7.83
2019-02-19T20:52:40.146Z,8.05
2019-02-19T20:55:10.586Z,7.87
2019-02-19T20:57:38.964Z,7.69
2019-02-19T21:00:16.524Z,7.84
2019-02-19T21:02:45.001Z,7.91
2019-02-19T21:05:13.403Z,7.92
2019-02-19T21:07:41.711Z,7.90
2019-02-19T21:10:18.477Z,7.91
2019-02-19T21:12:47.126Z,7.95
2019-02-19T21:15:15.570Z,7.72
2019-02-19T21:17:43.966Z,7.88
2019-02-19T21:20:13.033Z,7.92
2019-02-19T21:22:41.421Z,8.05
2019-02-19T21:25:11.164Z,8.26
2019-02-19T21:27:39.554Z,8.18
2019-02-19T21:30:11.103Z,8.35
2019-02-19T21:32:39.449Z,8.08
2019-02-19T21:35:09.012Z,8.08
2019-02-19T21:37:37.911Z,8.07
2019-02-19T21:40:11.574Z,7.86
2019-02-19T21:42:40.100Z,8.09
2019-02-19T21:45:10.784Z,8.33
2019-02-19T21:47:39.114Z,8.27
2019-02-19T21:50:15.391Z,8.23
2019-02-19T21:52:43.265Z,8.18
2019-02-19T21:55:12.970Z,8.17
2019-02-19T21:57:41.341Z,8.16
2019-02-19T22:00:20.527Z,8.05
2019-02-19T22:02:49.310Z,8.17
2019-02-19T22:05:17.612Z,8.18
2019-02-19T22:07:45.930Z,8.19
2019-02-19T22:10:14.773Z,8.19
2019-02-19T22:12:43.118Z,8.07
2019-02-19T22:15:13.353Z,8.06
2019-02-19T22:17:41.719Z,8.07
2019-02-19T22:20:14.897Z,8.07
2019-02-19T22:22:43.201Z,8.21
2019-02-19T22:25:11.525Z,8.15
2019-02-19T22:27:39.843Z,8.23
2019-02-19T22:30:09.600Z,8.11
2019-02-19T22:32:37.980Z,8.13
2019-02-19T22:35:06.969Z,8.08
2019-02-19T22:37:35.729Z,8.08
2019-02-19T22:40:05.967Z,8.12
2019-02-19T22:42:34.287Z,8.20
2019-02-19T22:45:02.590Z,8.27
2019-02-19T22:47:30.920Z,8.23
2019-02-19T22:50:00.194Z,8.30
2019-02-19T22:52:28.581Z,8.30
2019-02-19T22:54:58.914Z,8.39
2019-02-19T22:57:27.221Z,8.33
2019-02-19T22:59:55.545Z,8.32
2019-02-19T23:02:24.356Z,8.43
2019-02-19T23:04:53.045Z,8.30
2019-02-19T23:07:21.737Z,8.30
2019-02-19T23:09:50.509Z,8.40
2019-02-19T23:12:18.852Z,8.43
2019-02-19T23:14:47.150Z,8.41
2019-02-19T23:17:15.520Z,8.33
2019-02-19T23:19:43.844Z,8.34
2019-02-19T23:22:21.185Z,8.34
2019-02-19T23:24:42.631Z,8.27
2019-02-19T23:27:10.950Z,8.20
2019-02-19T23:29:39.242Z,8.18
2019-02-19T23:32:07.911Z,8.13
2019-02-19T23:34:36.215Z,8.20
2019-02-19T23:37:05.515Z,8.21
2019-02-19T23:39:43.229Z,8.19
2019-02-19T23:42:04.208Z,7.96
2019-02-19T23:44:32.500Z,7.89
2019-02-19T23:47:01.168Z,7.85
2019-02-19T23:49:29.487Z,7.76
2019-02-19T23:51:57.789Z,7.73
2019-02-19T23:54:26.117Z,7.77
2019-02-19T23:56:54.414Z,7.71
2019-02-19T23:59:22.752Z,7.81
